Time;durP1;ratioP1;P1;durP2;ratioP2;P2;SDS_P1;SDS_P2;PMS_P1;PMS_P2;Temp;Humidity;BMP_temperature;BMP_pressure;BME280_temperature;BME280_humidity;BME280_pressure;Samples;Min_cycle;Max_cycle;Signal;HPM_P1;HPM_P2
2022/06/25 00:01:15;;;;;;;12.45;8.38;;;;;;;16.78;100.00;97206.91;5015911;28;20476;-78
2022/06/25 00:03:41;;;;;;;15.95;7.93;;;;;;;16.79;100.00;97196.97;5015599;28;20036;-78
2022/06/25 00:06:07;;;;;;;9.27;7.45;;;;;;;16.72;100.00;97195.81;5013341;28;20040;-78
2022/06/25 00:08:34;;;;;;;17.70;7.43;;;;;;;16.66;100.00;97191.84;5012498;28;20040;-77
2022/06/25 00:11:00;;;;;;;9.57;7.68;;;;;;;16.64;100.00;97187.56;4996282;28;20030;-78
2022/06/25 00:13:26;;;;;;;16.02;7.95;;;;;;;16.68;100.00;97189.84;4996519;28;20403;-78
2022/06/25 00:15:52;;;;;;;8.40;6.65;;;;;;;16.68;100.00;97167.38;4995881;28;20026;-79
2022/06/25 00:18:17;;;;;;;9.23;7.20;;;;;;;16.56;100.00;97171.19;5012500;28;20448;-78
2022/06/25 00:20:44;;;;;;;14.75;7.55;;;;;;;16.51;100.00;97171.59;4995987;28;20089;-78
2022/06/25 00:23:10;;;;;;;9.95;7.13;;;;;;;16.53;100.00;97169.59;5012262;28;20061;-78
2022/06/25 00:25:35;;;;;;;11.80;6.70;;;;;;;16.49;100.00;97151.97;4979992;28;20115;-78
2022/06/25 00:28:01;;;;;;;8.25;6.47;;;;;;;16.51;100.00;97157.25;5005421;28;20043;-78
2022/06/25 00:30:28;;;;;;;10.00;6.95;;;;;;;16.59;100.00;97163.69;4976599;28;20043;-78
2022/06/25 00:32:54;;;;;;;8.70;6.85;;;;;;;16.55;100.00;97162.25;4960169;28;20121;-79
2022/06/25 00:35:20;;;;;;;9.90;7.10;;;;;;;16.52;100.00;97173.28;4976602;28;20082;-78
2022/06/25 00:37:45;;;;;;;7.80;6.95;;;;;;;16.51;100.00;97165.34;4992553;28;20022;-78
2022/06/25 00:40:11;;;;;;;12.98;7.45;;;;;;;16.53;100.00;97147.16;4976516;28;20030;-77
2022/06/25 00:42:37;;;;;;;13.77;7.30;;;;;;;16.48;100.00;97155.69;4992474;28;20026;-77
2022/06/25 00:45:03;;;;;;;13.13;8.45;;;;;;;16.44;100.00;97148.84;4975530;28;20088;-78
2022/06/25 00:47:28;;;;;;;13.88;7.93;;;;;;;16.41;100.00;97148.28;4976033;28;20114;-77
2022/06/25 00:49:54;;;;;;;12.32;8.30;;;;;;;16.42;100.00;97164.34;4993500;28;20402;-78
2022/06/25 00:52:21;;;;;;;13.43;8.32;;;;;;;16.41;100.00;97154.53;4992248;28;20457;-77
2022/06/25 00:54:53;;;;;;;12.55;8.18;;;;;;;16.46;100.00;97162.19;4973014;28;20528;-78
2022/06/25 00:57:25;;;;;;;;;;;;;;;16.41;100.00;97154.53;4992545;28;20113;-78
2022/06/25 00:59:53;;;;;;;16.05;8.23;;;;;;;16.38;100.00;97164.75;4975758;28;19914;-78
2022/06/25 01:02:22;;;;;;;10.85;8.93;;;;;;;16.35;100.00;97163.19;4976166;28;20038;-78
2022/06/25 01:04:49;;;;;;;13.73;9.85;;;;;;;16.25;100.00;97167.72;4973014;28;20036;-78
2022/06/25 01:07:15;;;;;;;12.88;9.60;;;;;;;16.23;100.00;97172.41;4991925;28;20038;-78
2022/06/25 01:09:41;;;;;;;12.88;9.45;;;;;;;16.21;100.00;97174.41;4975687;28;20045;-78
2022/06/25 01:12:07;;;;;;;14.30;8.90;;;;;;;16.17;100.00;97172.97;4975339;28;20022;-78
2022/06/25 01:14:33;;;;;;;17.13;9.23;;;;;;;16.13;100.00;97167.00;4991600;28;20034;-78
2022/06/25 01:16:59;;;;;;;12.63;8.93;;;;;;;16.09;100.00;97162.00;4959294;28;20383;-78
2022/06/25 01:19:25;;;;;;;16.17;9.55;;;;;;;16.06;100.00;97155.03;4975584;28;20084;-78
2022/06/25 01:21:50;;;;;;;15.75;9.40;;;;;;;16.07;100.00;97167.53;4975679;28;20018;-77
2022/06/25 01:24:16;;;;;;;13.38;8.80;;;;;;;16.00;100.00;97170.91;4975442;28;20026;-77
2022/06/25 01:26:41;;;;;;;11.55;9.02;;;;;;;15.94;100.00;97177.72;4991695;28;20029;-77
2022/06/25 01:29:09;;;;;;;14.82;9.68;;;;;;;15.94;100.00;97183.13;4988431;28;20046;-77
2022/06/25 01:31:35;;;;;;;14.18;8.95;;;;;;;15.92;100.00;97179.72;4975366;28;20033;-79
2022/06/25 01:34:03;;;;;;;12.82;9.25;;;;;;;15.86;100.00;97179.41;4992646;28;20030;-77
2022/06/25 01:36:28;;;;;;;14.10;9.00;;;;;;;15.83;100.00;97176.97;5007915;28;20034;-77
2022/06/25 01:38:54;;;;;;;12.40;8.70;;;;;;;15.83;100.00;97179.69;4991564;28;20483;-77
2022/06/25 01:41:20;;;;;;;13.65;8.93;;;;;;;15.77;100.00;97174.81;5007488;28;20023;-78
2022/06/25 01:43:46;;;;;;;11.15;9.20;;;;;;;15.80;100.00;97183.50;4991797;28;20471;-77
2022/06/25 01:46:11;;;;;;;14.30;9.65;;;;;;;15.72;100.00;97169.81;4974874;28;20085;-77
2022/06/25 01:48:37;;;;;;;18.60;9.20;;;;;;;15.68;100.00;97166.56;5007763;28;20026;-77
2022/06/25 01:51:03;;;;;;;12.50;8.63;;;;;;;15.70;100.00;97174.50;4985888;28;20030;-78
2022/06/25 01:53:29;;;;;;;17.25;9.65;;;;;;;15.75;100.00;97168.72;5007484;28;20030;-76
2022/06/25 01:55:55;;;;;;;16.90;9.65;;;;;;;15.72;100.00;97178.78;5000656;28;20434;-78
2022/06/25 01:58:21;;;;;;;11.98;9.68;;;;;;;15.68;100.00;97182.75;4987377;28;20108;-77
2022/06/25 02:00:47;;;;;;;13.60;10.05;;;;;;;15.58;100.00;97181.00;5007270;28;20093;-77
2022/06/25 02:03:14;;;;;;;14.23;10.35;;;;;;;15.56;100.00;97191.94;5007092;28;20438;-77
2022/06/25 02:05:59;;;;;;;15.77;8.85;;;;;;;15.55;100.00;97187.50;4990669;28;20030;-78
2022/06/25 02:08:34;;;;;;;17.65;9.48;;;;;;;15.60;100.00;97196.03;4996797;28;20026;-75
2022/06/25 02:11:01;;;;;;;13.20;9.02;;;;;;;15.63;100.00;97190.38;5000396;28;20090;-77
2022/06/25 02:13:27;;;;;;;12.27;9.57;;;;;;;15.60;100.00;97190.66;4991488;28;20030;-75
2022/06/25 02:15:54;;;;;;;11.75;9.02;;;;;;;15.75;100.00;97193.81;5007109;28;20054;-77
2022/06/25 02:18:20;;;;;;;12.73;8.82;;;;;;;15.74;100.00;97189.44;4989083;28;20038;-77
2022/06/25 02:20:45;;;;;;;13.40;8.68;;;;;;;15.71;100.00;97192.41;4974424;28;20033;-76
2022/06/25 02:23:12;;;;;;;9.85;7.97;;;;;;;15.77;100.00;97199.97;4989853;28;20030;-78
2022/06/25 02:25:38;;;;;;;12.48;9.45;;;;;;;15.87;100.00;97197.31;4990386;28;20446;-78
2022/06/25 02:28:04;;;;;;;11.18;8.90;;;;;;;15.83;100.00;97190.47;4998427;28;20053;-78
2022/06/25 02:30:30;;;;;;;16.08;11.80;;;;;;;15.91;100.00;97199.56;5026018;28;20053;-78
2022/06/25 02:32:55;;;;;;;12.52;9.40;;;;;;;15.95;100.00;97205.56;4994188;28;20026;-77
2022/06/25 02:35:21;;;;;;;17.75;9.43;;;;;;;15.88;100.00;97204.38;5010043;28;20037;-78
2022/06/25 02:37:46;;;;;;;16.65;9.63;;;;;;;15.79;100.00;97216.00;5011103;28;20034;-78
2022/06/25 02:40:12;;;;;;;14.73;9.90;;;;;;;15.81;100.00;97214.03;5026435;28;20030;-78
2022/06/25 02:42:39;;;;;;;13.35;9.30;;;;;;;15.81;100.00;97232.91;5009861;28;20040;-78
2022/06/25 02:45:05;;;;;;;18.38;10.50;;;;;;;15.80;100.00;97223.97;5026516;28;20036;-78
2022/06/25 02:47:31;;;;;;;19.02;10.02;;;;;;;15.86;100.00;97241.44;5009849;28;20481;-78
2022/06/25 02:49:57;;;;;;;12.43;9.02;;;;;;;15.92;100.00;97227.41;5009940;28;20037;-78
2022/06/25 02:52:23;;;;;;;10.70;8.90;;;;;;;15.98;100.00;97222.34;4997583;28;20026;-77
2022/06/25 02:54:48;;;;;;;13.55;9.20;;;;;;;16.06;100.00;97213.53;5008323;28;20465;-78
2022/06/25 02:59:58;;;;;;;16.17;10.48;;;;;;;16.05;100.00;97217.25;5011057;28;20111;-79
2022/06/25 03:02:23;;;;;;;13.13;9.00;;;;;;;15.98;100.00;97210.69;5009589;28;20457;-78
2022/06/25 03:04:49;;;;;;;12.25;9.10;;;;;;;15.96;100.00;97197.34;5010755;28;20040;-78
2022/06/25 03:07:15;;;;;;;13.02;8.48;;;;;;;15.98;100.00;97202.59;4993368;28;20125;-77
2022/06/25 03:09:40;;;;;;;15.23;9.10;;;;;;;15.92;100.00;97189.66;5009617;28;20021;-78
2022/06/25 03:12:07;;;;;;;12.70;8.85;;;;;;;15.85;100.00;97210.91;4995490;28;20496;-79
2022/06/25 03:14:32;;;;;;;16.65;9.70;;;;;;;15.95;100.00;97221.75;5010463;28;20029;-78
2022/06/25 03:16:58;;;;;;;13.90;9.43;;;;;;;16.00;100.00;97214.09;4993570;28;20129;-78
2022/06/25 03:19:23;;;;;;;14.85;9.55;;;;;;;16.04;100.00;97215.53;5010903;28;20033;-78
2022/06/25 03:21:49;;;;;;;17.42;8.95;;;;;;;16.12;100.00;97215.69;5009483;28;20558;-78
2022/06/25 03:24:14;;;;;;;14.77;9.23;;;;;;;16.20;100.00;97229.38;5009671;28;20034;-79
2022/06/25 03:26:40;;;;;;;15.32;9.38;;;;;;;16.23;100.00;97223.69;4999925;28;20030;-78
2022/06/25 03:29:06;;;;;;;19.40;9.93;;;;;;;16.31;100.00;97213.03;5025996;28;20081;-78
2022/06/25 03:31:31;;;;;;;14.38;10.10;;;;;;;16.49;100.00;97207.84;5009498;28;20034;-79
2022/06/25 03:33:57;;;;;;;19.02;12.82;;;;;;;16.65;100.00;97205.47;5022546;28;20025;-80
2022/06/25 03:36:23;;;;;;;16.48;8.15;;;;;;;16.76;100.00;97202.66;5025764;28;20457;-78
2022/06/25 03:38:48;;;;;;;20.15;11.25;;;;;;;16.82;100.00;97207.47;5009287;28;20512;-78
2022/06/25 03:43:59;;;;;;;11.40;6.97;;;;;;;17.11;100.00;97197.50;5010466;28;20137;-78
2022/06/25 03:46:24;;;;;;;13.85;7.20;;;;;;;17.14;100.00;97201.75;5013365;28;20029;-77
2022/06/25 03:48:50;;;;;;;12.27;8.30;;;;;;;17.23;100.00;97204.44;5012763;28;20022;-79
2022/06/25 03:51:15;;;;;;;15.38;8.20;;;;;;;17.23;100.00;97196.34;5013026;28;20053;-79
2022/06/25 03:53:41;;;;;;;12.10;7.15;;;;;;;17.24;100.00;97198.06;5028854;28;20529;-79
2022/06/25 03:56:07;;;;;;;12.65;7.70;;;;;;;17.25;100.00;97209.72;5012942;28;20469;-79
2022/06/25 03:58:32;;;;;;;16.83;8.43;;;;;;;17.23;100.00;97201.75;5007375;28;20057;-79
2022/06/25 04:00:58;;;;;;;20.98;8.48;;;;;;;17.18;100.00;97201.34;5029354;28;20094;-79
2022/06/25 04:03:23;;;;;;;15.20;8.68;;;;;;;17.06;100.00;97201.63;5029133;28;20034;-78
2022/06/25 04:05:49;;;;;;;16.52;8.15;;;;;;;17.10;100.00;97211.16;5029054;28;20037;-79
2022/06/25 04:08:15;;;;;;;12.38;7.95;;;;;;;17.13;100.00;97206.34;5028239;28;20540;-79
2022/06/25 04:10:42;;;;;;;16.52;9.73;;;;;;;17.28;100.00;97209.44;5028723;28;20041;-79
2022/06/25 04:13:08;;;;;;;12.50;8.20;;;;;;;17.43;100.00;97223.34;5011585;28;20053;-78
2022/06/25 04:15:35;;;;;;;18.48;8.07;;;;;;;17.48;100.00;97208.41;5009800;28;20037;-78
2022/06/25 04:18:01;;;;;;;9.48;7.75;;;;;;;17.42;100.00;97208.97;5028686;28;20030;-79
2022/06/25 04:20:27;;;;;;;10.73;7.60;;;;;;;17.56;100.00;97208.56;5028584;28;20029;-79
2022/06/25 04:22:53;;;;;;;11.95;7.45;;;;;;;17.63;100.00;97220.47;5011603;28;20037;-78
2022/06/25 04:25:19;;;;;;;11.27;7.90;;;;;;;17.66;100.00;97216.63;5012881;28;20030;-78
2022/06/25 04:30:28;;;;;;;19.88;8.02;;;;;;;17.63;100.00;97216.91;5013604;28;20049;-79
2022/06/25 04:32:55;;;;;;;16.27;8.25;;;;;;;17.68;100.00;97218.22;5011281;28;20054;-79
2022/06/25 04:35:20;;;;;;;11.95;8.05;;;;;;;17.76;100.00;97217.47;4990208;28;20045;-78
2022/06/25 04:37:46;;;;;;;15.43;8.23;;;;;;;17.81;100.00;97212.47;5009977;28;20109;-79
2022/06/25 04:40:12;;;;;;;15.02;8.77;;;;;;;17.91;100.00;97215.13;4994456;28;20040;-79
2022/06/25 04:42:38;;;;;;;17.30;8.05;;;;;;;18.01;100.00;97213.25;5028879;28;20030;-78
2022/06/25 04:45:04;;;;;;;16.92;9.45;;;;;;;18.03;100.00;97211.22;5006288;28;20026;-79
2022/06/25 04:47:29;;;;;;;10.32;7.90;;;;;;;18.21;100.00;97231.94;5009136;28;20029;-79
2022/06/25 04:49:55;;;;;;;15.15;8.05;;;;;;;18.36;100.00;97224.19;4995511;28;20456;-79
2022/06/25 04:52:20;;;;;;;20.92;7.78;;;;;;;18.42;100.00;97221.72;5010968;28;20034;-79
2022/06/25 04:54:46;;;;;;;21.20;8.38;;;;;;;18.56;100.00;97220.38;5011996;28;20420;-79
2022/06/25 04:57:11;;;;;;;15.30;7.80;;;;;;;18.46;100.00;97219.56;5011896;28;20022;-78
2022/06/25 04:59:37;;;;;;;13.80;7.43;;;;;;;18.47;100.00;97220.41;5011698;28;20032;-78
2022/06/25 05:02:03;;;;;;;11.70;7.47;;;;;;;18.59;100.00;97220.06;5027871;28;20120;-78
2022/06/25 05:04:28;;;;;;;9.80;7.50;;;;;;;18.81;100.00;97230.50;5011544;28;20477;-78
2022/06/25 05:06:54;;;;;;;12.13;7.85;;;;;;;18.93;100.00;97228.41;5011605;28;20030;-78
2022/06/25 05:09:20;;;;;;;21.60;8.85;;;;;;;18.89;100.00;97237.81;5011626;28;20100;-78
2022/06/25 05:11:45;;;;;;;16.88;7.90;;;;;;;18.83;100.00;97233.03;5011296;28;20064;-78
2022/06/25 05:14:11;;;;;;;14.85;8.15;;;;;;;19.23;100.00;97224.44;5027666;28;20060;-78
2022/06/25 05:16:36;;;;;;;11.00;7.40;;;;;;;19.56;100.00;97231.88;5028189;28;20612;-78
2022/06/25 05:19:02;;;;;;;14.18;7.47;;;;;;;19.78;100.00;97233.22;5011302;28;20057;-78
2022/06/25 05:21:28;;;;;;;13.63;7.55;;;;;;;20.18;100.00;97246.19;5027835;28;20128;-78
2022/06/25 05:23:53;;;;;;;16.27;7.80;;;;;;;20.28;100.00;97238.78;5028052;28;20056;-78
2022/06/25 05:26:19;;;;;;;13.07;7.43;;;;;;;20.41;100.00;97247.31;5010881;28;20029;-78
2022/06/25 05:28:45;;;;;;;17.77;8.02;;;;;;;20.54;99.14;97245.00;5027323;28;20145;-78
2022/06/25 05:31:10;;;;;;;19.08;7.78;;;;;;;20.80;97.42;97251.19;5027268;28;20485;-78
2022/06/25 05:33:36;;;;;;;12.65;7.07;;;;;;;21.12;95.38;97263.22;4994861;28;20022;-78
2022/06/25 05:36:02;;;;;;;11.13;7.38;;;;;;;21.32;93.14;97262.72;5027617;28;20037;-78
2022/06/25 05:38:27;;;;;;;11.05;7.38;;;;;;;21.22;92.89;97258.47;4995809;28;20029;-79
2022/06/25 05:40:54;;;;;;;13.77;7.82;;;;;;;21.23;92.34;97250.13;5025708;28;20260;-79
2022/06/25 05:43:19;;;;;;;13.43;7.75;;;;;;;21.40;92.47;97256.44;5026721;28;20113;-78
2022/06/25 05:45:45;;;;;;;16.98;9.32;;;;;;;21.28;92.77;97263.25;4997869;28;20484;-79
2022/06/25 05:48:10;;;;;;;14.43;7.93;;;;;;;21.44;91.00;97263.25;5008098;28;20029;-78
2022/06/25 05:50:36;;;;;;;14.98;8.00;;;;;;;21.53;91.11;97260.34;5010101;28;20022;-78
2022/06/25 05:53:02;;;;;;;14.63;7.90;;;;;;;22.96;84.74;97258.50;5011996;28;20026;-78
2022/06/25 05:55:28;;;;;;;12.88;8.10;;;;;;;23.54;77.52;97248.91;5009793;28;20022;-77
2022/06/25 05:57:53;;;;;;;8.43;6.70;;;;;;;25.16;72.60;97248.00;5025665;28;20519;-78
2022/06/25 06:00:19;;;;;;;16.05;6.32;;;;;;;27.27;62.70;97235.66;5006349;28;20038;-79
2022/06/25 06:02:44;;;;;;;19.15;6.13;;;;;;;28.20;58.59;97237.50;5008213;28;20416;-84
2022/06/25 06:05:10;;;;;;;11.45;6.07;;;;;;;28.75;56.49;97240.78;4990476;28;20021;-85
2022/06/25 06:07:36;;;;;;;12.52;5.95;;;;;;;28.88;56.55;97240.75;5012604;28;20030;-83
2022/06/25 06:10:04;;;;;;;10.27;5.88;;;;;;;29.06;55.10;97246.41;5010451;28;20030;-81
2022/06/25 06:12:29;;;;;;;12.65;5.80;;;;;;;29.40;53.39;97234.19;4993731;28;20038;-80
2022/06/25 06:14:55;;;;;;;8.73;5.75;;;;;;;30.56;50.12;97227.97;5026542;28;20029;-80
2022/06/25 06:17:21;;;;;;;13.48;8.20;;;;;;;31.16;48.54;97225.41;5010361;28;20477;-78
2022/06/25 06:19:47;;;;;;;11.07;5.78;;;;;;;31.46;47.35;97231.78;4993714;28;20028;-79
2022/06/25 06:22:12;;;;;;;26.33;12.18;;;;;;;32.20;46.15;97222.16;5027033;28;20409;-79
2022/06/25 06:24:38;;;;;;;16.77;10.52;;;;;;;32.60;43.74;97211.22;5007131;28;20524;-80
2022/06/25 06:27:04;;;;;;;46.45;35.55;;;;;;;31.79;45.46;97219.41;5026460;28;20021;-80
2022/06/25 06:29:30;;;;;;;13.85;6.90;;;;;;;30.39;47.87;97229.66;5010012;28;20048;-80
2022/06/25 06:31:55;;;;;;;9.80;6.40;;;;;;;28.32;51.96;97240.44;5009514;28;20061;-81
2022/06/25 06:34:21;;;;;;;13.93;6.80;;;;;;;27.34;56.00;97254.91;5010380;28;20026;-80
2022/06/25 06:36:46;;;;;;;12.73;6.82;;;;;;;27.33;57.21;97255.94;5010262;28;20034;-80
2022/06/25 06:39:12;;;;;;;25.98;11.23;;;;;;;27.50;59.04;97249.06;5011563;28;20033;-81
2022/06/25 06:41:38;;;;;;;17.25;10.57;;;;;;;27.55;59.24;97248.44;5007507;28;20025;-81
2022/06/25 06:44:04;;;;;;;15.45;7.15;;;;;;;29.42;54.20;97232.88;4992443;28;20025;-80
2022/06/25 06:46:29;;;;;;;8.68;6.93;;;;;;;30.69;50.57;97240.81;5009973;28;20032;-82
2022/06/25 06:48:55;;;;;;;15.00;6.80;;;;;;;32.55;46.24;97228.53;5009892;28;20034;-81
2022/06/25 06:51:20;;;;;;;12.48;6.53;;;;;;;33.08;44.59;97224.78;5007907;28;20037;-81
2022/06/25 06:53:46;;;;;;;13.15;6.68;;;;;;;32.13;45.51;97226.97;5010996;28;20437;-80
2022/06/25 06:56:12;;;;;;;13.18;7.35;;;;;;;33.85;42.97;97226.06;4993393;28;20029;-82
2022/06/25 06:58:37;;;;;;;14.75;6.28;;;;;;;34.76;41.52;97217.31;4993800;28;20173;-81
2022/06/25 07:01:03;;;;;;;17.33;6.28;;;;;;;35.22;39.30;97215.19;5024233;28;20033;-81
2022/06/25 07:03:29;;;;;;;16.38;6.47;;;;;;;35.58;38.79;97213.69;5007716;28;20034;-82
2022/06/25 07:05:55;;;;;;;15.18;6.22;;;;;;;36.58;37.30;97208.22;4993156;28;20085;-79
2022/06/25 07:08:21;;;;;;;15.43;10.85;;;;;;;37.50;35.66;97204.88;5009722;28;20118;-80
2022/06/25 07:10:47;;;;;;;18.80;8.80;;;;;;;38.12;34.06;97201.09;5010059;28;20375;-80
2022/06/25 07:13:12;;;;;;;11.85;8.00;;;;;;;38.52;34.01;97206.66;5008920;28;20037;-79
2022/06/25 07:15:39;;;;;;;9.20;4.55;;;;;;;38.02;33.47;97206.66;5011033;28;20048;-81
2022/06/25 07:18:05;;;;;;;10.60;5.18;;;;;;;38.01;33.56;97199.38;5015656;28;20473;-80
2022/06/25 07:20:31;;;;;;;17.88;4.97;;;;;;;36.77;34.72;97203.06;5029698;28;20563;-80
2022/06/25 07:22:56;;;;;;;9.07;5.28;;;;;;;37.02;34.36;97202.38;5013259;28;20105;-81
2022/06/25 07:25:22;;;;;;;8.27;4.65;;;;;;;36.97;34.09;97197.59;5014532;28;20053;-80
2022/06/25 07:27:48;;;;;;;26.65;5.65;;;;;;;37.68;33.82;97189.53;5021623;28;20068;-79
2022/06/25 07:30:14;;;;;;;7.78;4.90;;;;;;;37.59;33.60;97188.41;5000950;28;20029;-79
2022/06/25 07:32:39;;;;;;;10.98;5.50;;;;;;;38.43;31.99;97186.00;5033411;28;20056;-78
2022/06/25 07:35:06;;;;;;;8.35;5.32;;;;;;;38.47;32.22;97195.50;5031253;28;20084;-81
2022/06/25 07:37:31;;;;;;;14.05;5.53;;;;;;;37.93;32.72;97186.81;5032436;28;20025;-80
2022/06/25 07:39:57;;;;;;;10.35;4.97;;;;;;;38.45;32.50;97193.00;5016383;28;20045;-81
2022/06/25 07:42:23;;;;;;;6.53;4.47;;;;;;;39.16;31.04;97183.63;5016854;28;20179;-80
2022/06/25 07:44:49;;;;;;;20.70;12.23;;;;;;;38.03;33.37;97199.94;5017140;28;20377;-80
2022/06/25 07:47:14;;;;;;;9.98;6.47;;;;;;;36.24;34.94;97192.91;5016463;28;20040;-81
2022/06/25 07:52:25;;;;;;;15.68;11.30;;;;;;;36.19;35.66;97204.84;5018771;28;20063;-80
2022/06/25 07:54:51;;;;;;;21.50;5.90;;;;;;;38.17;33.77;97201.94;5037396;28;20087;-79
2022/06/25 07:57:17;;;;;;;23.25;5.53;;;;;;;37.77;33.84;97197.09;5032651;28;20485;-79
2022/06/25 07:59:42;;;;;;;35.35;6.68;;;;;;;36.88;34.99;97200.06;5012716;28;20036;-79
2022/06/25 08:02:08;;;;;;;9.45;5.90;;;;;;;36.63;35.21;97204.66;5015279;28;20022;-79
2022/06/25 08:04:33;;;;;;;7.82;5.63;;;;;;;37.11;33.98;97192.38;5032230;28;20025;-79
2022/06/25 08:06:59;;;;;;;8.38;5.10;;;;;;;36.94;34.39;97193.41;4999499;28;20022;-79
2022/06/25 08:09:25;;;;;;;7.63;5.57;;;;;;;36.33;35.37;97194.91;5015529;28;20500;-79
2022/06/25 08:11:50;;;;;;;6.47;4.57;;;;;;;38.69;31.71;97187.66;5016065;28;20025;-79
2022/06/25 08:14:16;;;;;;;12.32;6.28;;;;;;;37.99;33.08;97192.09;5015689;28;20111;-78
2022/06/25 08:16:44;;;;;;;21.52;15.63;;;;;;;38.03;32.69;97188.75;5018139;28;20389;-79
2022/06/25 08:19:09;;;;;;;21.13;14.68;;;;;;;38.23;32.24;97177.59;5032109;28;20049;-79
2022/06/25 08:21:35;;;;;;;8.02;4.43;;;;;;;38.37;31.73;97175.94;5015578;28;20024;-79
2022/06/25 08:24:01;;;;;;;6.65;4.00;;;;;;;39.46;31.23;97184.34;5031842;28;20152;-79
2022/06/25 08:26:26;;;;;;;8.40;3.90;;;;;;;38.17;30.57;97162.78;5015071;28;20021;-78
2022/06/25 08:28:52;;;;;;;8.75;3.90;;;;;;;36.54;33.56;97182.03;5014875;28;20056;-79
2022/06/25 08:31:18;;;;;;;12.23;4.70;;;;;;;35.98;34.22;97175.09;5031804;28;20109;-79
2022/06/25 08:33:44;;;;;;;16.15;5.50;;;;;;;37.60;32.28;97176.94;5015865;28;20026;-79
2022/06/25 08:36:10;;;;;;;4.97;3.78;;;;;;;38.48;31.61;97172.03;5031756;28;20033;-79
2022/06/25 08:38:36;;;;;;;7.68;3.67;;;;;;;39.92;30.49;97168.09;5015519;28;20408;-79
2022/06/25 08:41:02;;;;;;;14.13;4.25;;;;;;;41.17;29.67;97167.19;5014939;28;20489;-79
2022/06/25 08:43:28;;;;;;;8.85;3.65;;;;;;;42.38;27.06;97159.00;5015463;28;20032;-79
2022/06/25 08:45:55;;;;;;;5.57;3.45;;;;;;;41.92;25.89;97153.28;5031542;28;20021;-79
2022/06/25 08:48:31;;;;;;;7.90;3.78;;;;;;;41.64;27.34;97155.91;5014478;28;20079;-79
2022/06/25 08:50:56;;;;;;;5.70;3.50;;;;;;;39.36;27.61;97144.34;5030321;28;20503;-79
2022/06/25 08:53:22;;;;;;;4.88;3.50;;;;;;;40.67;26.50;97148.94;5015842;28;20064;-77
2022/06/25 08:55:48;;;;;;;8.75;3.30;;;;;;;40.46;25.80;97144.66;5031628;28;20033;-78
2022/06/25 08:58:14;;;;;;;4.55;3.25;;;;;;;40.82;25.75;97151.63;5031365;28;20025;-79
2022/06/25 09:00:45;;;;;;;6.78;4.10;;;;;;;41.18;26.02;97154.00;5014940;28;20029;-79
2022/06/25 09:03:11;;;;;;;4.80;3.08;;;;;;;40.11;26.39;97148.66;5014832;28;20110;-78
2022/06/25 09:05:40;;;;;;;6.63;3.28;;;;;;;38.56;26.73;97151.84;5014815;28;20041;-79
2022/06/25 09:08:07;;;;;;;8.07;3.45;;;;;;;37.60;27.81;97151.81;5014086;28;20403;-79
2022/06/25 09:10:33;;;;;;;3.38;3.08;;;;;;;38.78;27.99;97163.56;5030932;28;20078;-79
2022/06/25 09:13:00;;;;;;;7.35;3.50;;;;;;;40.16;26.24;97161.75;5031099;28;20516;-78
2022/06/25 09:15:29;;;;;;;6.38;3.58;;;;;;;38.37;27.29;97159.16;5014476;28;20041;-78
2022/06/25 09:17:55;;;;;;;6.30;2.90;;;;;;;39.77;25.83;97143.00;5003494;28;20124;-78
2022/06/25 09:20:22;;;;;;;7.07;3.15;;;;;;;40.80;24.85;97150.22;5030908;28;20068;-78
2022/06/25 09:22:59;;;;;;;5.95;3.40;;;;;;;40.24;25.75;97144.31;5021328;28;20119;-79
2022/06/25 09:25:27;;;;;;;7.15;3.83;;;;;;;40.32;25.90;97158.53;5011405;28;20079;-79
2022/06/25 09:27:53;;;;;;;4.28;3.40;;;;;;;40.64;24.97;97155.16;5013199;28;20436;-84
2022/06/25 09:30:20;;;;;;;5.85;2.90;;;;;;;40.27;23.99;97138.13;5005738;28;20029;-79
2022/06/25 09:32:59;;;;;;;4.20;3.10;;;;;;;40.01;24.55;97141.13;5031369;28;20060;-82
2022/06/25 09:35:35;;;;;;;3.67;3.00;;;;;;;40.26;23.71;97130.84;5016764;28;20025;-79
2022/06/25 09:38:05;;;;;;;5.57;3.10;;;;;;;40.68;23.20;97136.59;5030090;28;20029;-85
2022/06/25 09:40:31;;;;;;;3.40;3.10;;;;;;;42.07;21.96;97134.19;5015531;28;20404;-86
2022/06/25 09:42:57;;;;;;;3.80;2.90;;;;;;;42.93;21.19;97129.81;5016932;28;20272;-81
2022/06/25 09:45:23;;;;;;;6.05;3.40;;;;;;;41.55;22.56;97128.81;5030221;28;20400;-81
2022/06/25 09:47:49;;;;;;;7.95;3.15;;;;;;;40.50;23.10;97126.94;5028320;28;20030;-82
2022/06/25 09:50:19;;;;;;;7.25;3.80;;;;;;;41.07;23.33;97125.22;5013645;28;20021;-81
2022/06/25 09:52:57;;;;;;;11.80;3.63;;;;;;;41.10;23.28;97124.63;5030479;28;20033;-81
2022/06/25 09:55:24;;;;;;;9.88;3.75;;;;;;;40.94;24.32;97126.78;5029861;28;20036;-81
2022/06/25 09:57:53;;;;;;;5.78;3.17;;;;;;;41.37;22.67;97130.47;5029096;28;20044;-80
2022/06/25 10:00:20;;;;;;;5.30;3.47;;;;;;;40.85;24.05;97124.91;5009539;28;20046;-81
2022/06/25 10:02:48;;;;;;;6.22;3.58;;;;;;;41.06;23.68;97117.94;5033616;28;20025;-81
2022/06/25 10:05:18;;;;;;;5.95;3.40;;;;;;;40.52;24.31;97118.25;5026901;28;20038;-80
2022/06/25 10:10:32;;;;;;;4.10;3.60;;;;;;;37.84;27.56;97125.03;5014830;28;20087;-80
2022/06/25 10:12:57;;;;;;;10.88;3.63;;;;;;;36.75;28.10;97128.03;5010418;28;20025;-81
2022/06/25 10:15:23;;;;;;;7.80;3.58;;;;;;;35.99;29.80;97128.59;5042528;28;20376;-81
2022/06/25 10:17:53;;;;;;;4.07;3.45;;;;;;;36.82;29.47;97148.16;5028877;28;20040;-81
2022/06/25 10:20:20;;;;;;;6.72;4.05;;;;;;;37.87;28.29;97144.03;5014278;28;20034;-80
2022/06/25 10:22:47;;;;;;;8.98;4.32;;;;;;;38.77;28.03;97142.28;5029899;28;20028;-79
2022/06/25 10:25:15;;;;;;;9.40;4.20;;;;;;;38.95;27.43;97138.06;4997067;28;20653;-80
2022/06/25 10:27:42;;;;;;;13.88;3.83;;;;;;;39.60;26.43;97130.47;5029544;28;20484;-80
2022/06/25 10:30:09;;;;;;;5.38;3.85;;;;;;;38.77;27.98;97128.31;5030092;28;20504;-80
2022/06/25 10:32:55;;;;;;;9.18;3.88;;;;;;;38.41;28.15;97137.91;5013106;28;20021;-79
2022/06/25 10:35:32;;;;;;;6.47;3.60;;;;;;;39.04;27.86;97137.19;5030159;28;20053;-80
2022/06/25 10:38:00;;;;;;;9.73;4.15;;;;;;;39.72;27.33;97133.75;5026582;28;20036;-81
2022/06/25 10:40:26;;;;;;;7.85;3.78;;;;;;;40.50;26.74;97131.72;5020976;28;20549;-82
2022/06/25 10:43:01;;;;;;;7.80;3.45;;;;;;;40.67;26.51;97134.91;5035040;28;20121;-81
2022/06/25 10:45:26;;;;;;;6.72;3.75;;;;;;;41.83;25.81;97135.44;5012220;28;20116;-81
2022/06/25 10:47:57;;;;;;;13.52;4.90;;;;;;;42.06;24.94;97123.22;5011277;28;20092;-81
2022/06/25 10:50:22;;;;;;;6.50;3.42;;;;;;;42.48;25.02;97139.13;5011714;28;20040;-81
2022/06/25 10:53:06;;;;;;;6.68;3.55;;;;;;;42.06;25.11;97126.88;5012878;28;20033;-80
2022/06/25 10:55:36;;;;;;;6.55;3.95;;;;;;;41.87;25.61;97111.19;5030719;28;20041;-81
2022/06/25 10:58:15;;;;;;;7.82;3.78;;;;;;;41.10;26.50;97119.81;5029101;28;20037;-81
2022/06/25 11:00:50;;;;;;;7.85;3.15;;;;;;;40.97;26.98;97114.97;5029352;28;20033;-81
2022/06/25 11:03:17;;;;;;;6.88;3.55;;;;;;;42.02;26.33;97125.84;5013175;28;20029;-81
2022/06/25 11:05:45;;;;;;;18.48;4.63;;;;;;;42.36;26.25;97108.69;5013140;28;20049;-81
2022/06/25 11:08:11;;;;;;;4.38;3.97;;;;;;;42.19;26.19;97108.41;5029128;28;20032;-82
2022/06/25 11:10:38;;;;;;;7.72;3.72;;;;;;;42.44;25.98;97118.38;5029192;28;20034;-81
2022/06/25 11:13:04;;;;;;;5.32;3.63;;;;;;;43.44;25.00;97112.72;5028969;28;20033;-82
2022/06/25 11:15:39;;;;;;;6.10;4.35;;;;;;;41.65;27.07;97114.59;5029401;28;20033;-80
2022/06/25 11:18:08;;;;;;;10.88;4.05;;;;;;;43.42;24.45;97120.66;5030480;28;20033;-82
2022/06/25 11:20:34;;;;;;;7.32;3.47;;;;;;;43.43;24.53;97115.84;5012753;28;20029;-80
2022/06/25 11:23:00;;;;;;;6.15;3.70;;;;;;;43.18;25.03;97115.25;5013412;28;20525;-79
2022/06/25 11:30:54;;;;;;;9.50;4.07;;;;;;;39.39;28.45;97093.34;5030367;28;20167;-80
2022/06/25 11:33:20;;;;;;;11.73;4.70;;;;;;;40.63;27.33;97103.00;5028978;28;20044;-81
2022/06/25 11:35:46;;;;;;;9.23;3.80;;;;;;;41.64;27.07;97084.81;5030158;28;20081;-81
2022/06/25 11:38:19;;;;;;;10.73;3.92;;;;;;;42.08;25.86;97090.88;5029111;28;20033;-81
2022/06/25 11:40:45;;;;;;;6.10;3.60;;;;;;;41.19;26.79;97079.84;5030747;28;20021;-81